sensor_id;sensor_type;location;lat;lon;timestamp;P1;durP1;ratioP1;P2;durP2;ratioP2
58294;SDS011;45705;55.592;37.460;2024-01-30T00:02:12;20.75;;;10.35;;
58294;SDS011;45705;55.592;37.460;2024-01-30T00:04:37;18.88;;;9.45;;
58294;SDS011;45705;55.592;37.460;2024-01-30T00:07:03;17.60;;;9.20;;
58294;SDS011;45705;55.592;37.460;2024-01-30T00:09:29;19.13;;;9.52;;
58294;SDS011;45705;55.592;37.460;2024-01-30T00:11:55;17.95;;;9.93;;
58294;SDS011;45705;55.592;37.460;2024-01-30T00:14:21;21.77;;;10.48;;
58294;SDS011;45705;55.592;37.460;2024-01-30T00:16:48;20.35;;;10.07;;
58294;SDS011;45705;55.592;37.460;2024-01-30T00:19:14;18.63;;;9.18;;
58294;SDS011;45705;55.592;37.460;2024-01-30T00:21:39;19.63;;;9.95;;
58294;SDS011;45705;55.592;37.460;2024-01-30T00:24:06;18.45;;;9.88;;
58294;SDS011;45705;55.592;37.460;2024-01-30T00:26:32;17.17;;;9.55;;
58294;SDS011;45705;55.592;37.460;2024-01-30T00:28:57;18.02;;;9.68;;
58294;SDS011;45705;55.592;37.460;2024-01-30T00:31:24;20.02;;;10.18;;
58294;SDS011;45705;55.592;37.460;2024-01-30T00:33:50;18.38;;;9.43;;
58294;SDS011;45705;55.592;37.460;2024-01-30T00:36:16;19.23;;;10.57;;
58294;SDS011;45705;55.592;37.460;2024-01-30T00:38:41;19.23;;;9.30;;
58294;SDS011;45705;55.592;37.460;2024-01-30T00:41:08;17.25;;;9.45;;
58294;SDS011;45705;55.592;37.460;2024-01-30T00:43:35;19.58;;;9.40;;
58294;SDS011;45705;55.592;37.460;2024-01-30T00:46:01;21.95;;;10.35;;
58294;SDS011;45705;55.592;37.460;2024-01-30T00:48:27;18.48;;;9.88;;
58294;SDS011;45705;55.592;37.460;2024-01-30T00:50:53;17.88;;;9.23;;
58294;SDS011;45705;55.592;37.460;2024-01-30T00:53:19;19.88;;;9.85;;
58294;SDS011;45705;55.592;37.460;2024-01-30T00:55:44;17.38;;;9.30;;
58294;SDS011;45705;55.592;37.460;2024-01-30T00:58:10;19.75;;;10.43;;
58294;SDS011;45705;55.592;37.460;2024-01-30T01:00:36;19.45;;;9.68;;
58294;SDS011;45705;55.592;37.460;2024-01-30T01:03:02;18.98;;;9.85;;
58294;SDS011;45705;55.592;37.460;2024-01-30T01:05:28;19.90;;;10.27;;
58294;SDS011;45705;55.592;37.460;2024-01-30T01:07:54;17.25;;;9.88;;
58294;SDS011;45705;55.592;37.460;2024-01-30T01:10:20;18.60;;;10.07;;
58294;SDS011;45705;55.592;37.460;2024-01-30T01:12:46;20.25;;;10.50;;
58294;SDS011;45705;55.592;37.460;2024-01-30T01:15:13;19.33;;;9.35;;
58294;SDS011;45705;55.592;37.460;2024-01-30T01:17:39;18.58;;;9.30;;
58294;SDS011;45705;55.592;37.460;2024-01-30T01:20:06;18.52;;;9.40;;
58294;SDS011;45705;55.592;37.460;2024-01-30T01:22:33;18.42;;;9.57;;
58294;SDS011;45705;55.592;37.460;2024-01-30T01:25:00;18.38;;;9.52;;
58294;SDS011;45705;55.592;37.460;2024-01-30T01:27:30;18.77;;;10.13;;
58294;SDS011;45705;55.592;37.460;2024-01-30T01:29:57;21.50;;;9.73;;
58294;SDS011;45705;55.592;37.460;2024-01-30T01:32:23;19.60;;;9.80;;
58294;SDS011;45705;55.592;37.460;2024-01-30T01:34:49;16.92;;;9.02;;
58294;SDS011;45705;55.592;37.460;2024-01-30T01:37:15;17.17;;;8.98;;
58294;SDS011;45705;55.592;37.460;2024-01-30T01:39:41;18.02;;;9.40;;
58294;SDS011;45705;55.592;37.460;2024-01-30T01:42:07;17.92;;;9.82;;
58294;SDS011;45705;55.592;37.460;2024-01-30T01:44:32;16.95;;;9.10;;
58294;SDS011;45705;55.592;37.460;2024-01-30T01:46:58;15.98;;;9.70;;
58294;SDS011;45705;55.592;37.460;2024-01-30T01:49:24;18.80;;;9.75;;
58294;SDS011;45705;55.592;37.460;2024-01-30T01:51:53;19.05;;;9.55;;
58294;SDS011;45705;55.592;37.460;2024-01-30T01:54:22;18.55;;;9.70;;
58294;SDS011;45705;55.592;37.460;2024-01-30T01:56:49;19.77;;;9.98;;
58294;SDS011;45705;55.592;37.460;2024-01-30T01:59:16;19.15;;;10.57;;
58294;SDS011;45705;55.592;37.460;2024-01-30T02:01:43;17.23;;;9.68;;
58294;SDS011;45705;55.592;37.460;2024-01-30T02:04:11;18.55;;;9.25;;
58294;SDS011;45705;55.592;37.460;2024-01-30T02:06:36;16.05;;;8.40;;
58294;SDS011;45705;55.592;37.460;2024-01-30T02:09:03;19.55;;;10.43;;
58294;SDS011;45705;55.592;37.460;2024-01-30T02:11:30;18.45;;;9.57;;
58294;SDS011;45705;55.592;37.460;2024-01-30T02:13:56;16.67;;;9.13;;
58294;SDS011;45705;55.592;37.460;2024-01-30T02:16:22;18.83;;;10.10;;
58294;SDS011;45705;55.592;37.460;2024-01-30T02:18:48;18.70;;;9.82;;
58294;SDS011;45705;55.592;37.460;2024-01-30T02:21:17;18.60;;;9.52;;
58294;SDS011;45705;55.592;37.460;2024-01-30T02:23:44;17.17;;;9.75;;
58294;SDS011;45705;55.592;37.460;2024-01-30T02:26:12;19.67;;;10.82;;
58294;SDS011;45705;55.592;37.460;2024-01-30T02:28:38;19.73;;;9.73;;
58294;SDS011;45705;55.592;37.460;2024-01-30T02:31:04;19.10;;;10.10;;
58294;SDS011;45705;55.592;37.460;2024-01-30T02:33:30;21.42;;;10.02;;
58294;SDS011;45705;55.592;37.460;2024-01-30T02:35:56;21.05;;;10.02;;
58294;SDS011;45705;55.592;37.460;2024-01-30T02:38:21;19.77;;;10.02;;
58294;SDS011;45705;55.592;37.460;2024-01-30T02:40:49;17.30;;;8.90;;
58294;SDS011;45705;55.592;37.460;2024-01-30T02:43:15;20.33;;;10.13;;
58294;SDS011;45705;55.592;37.460;2024-01-30T02:45:42;20.70;;;10.60;;
58294;SDS011;45705;55.592;37.460;2024-01-30T02:48:08;19.98;;;10.38;;
58294;SDS011;45705;55.592;37.460;2024-01-30T02:50:34;19.45;;;9.43;;
58294;SDS011;45705;55.592;37.460;2024-01-30T02:53:00;17.50;;;10.02;;
58294;SDS011;45705;55.592;37.460;2024-01-30T02:55:26;16.77;;;9.73;;
58294;SDS011;45705;55.592;37.460;2024-01-30T02:57:52;22.10;;;10.30;;
58294;SDS011;45705;55.592;37.460;2024-01-30T03:00:18;17.40;;;9.85;;
58294;SDS011;45705;55.592;37.460;2024-01-30T03:02:45;17.90;;;10.57;;
58294;SDS011;45705;55.592;37.460;2024-01-30T03:05:11;19.70;;;10.68;;
58294;SDS011;45705;55.592;37.460;2024-01-30T03:07:37;17.83;;;9.65;;
58294;SDS011;45705;55.592;37.460;2024-01-30T03:10:04;22.27;;;9.98;;
58294;SDS011;45705;55.592;37.460;2024-01-30T03:12:30;19.90;;;10.20;;
58294;SDS011;45705;55.592;37.460;2024-01-30T03:14:56;20.13;;;10.70;;
58294;SDS011;45705;55.592;37.460;2024-01-30T03:17:22;18.98;;;9.80;;
58294;SDS011;45705;55.592;37.460;2024-01-30T03:19:49;21.15;;;10.90;;
58294;SDS011;45705;55.592;37.460;2024-01-30T03:22:15;19.60;;;10.23;;
58294;SDS011;45705;55.592;37.460;2024-01-30T03:24:41;19.02;;;10.27;;
58294;SDS011;45705;55.592;37.460;2024-01-30T03:27:07;22.17;;;10.93;;
58294;SDS011;45705;55.592;37.460;2024-01-30T03:29:33;19.50;;;10.38;;
58294;SDS011;45705;55.592;37.460;2024-01-30T03:31:59;19.38;;;11.05;;
58294;SDS011;45705;55.592;37.460;2024-01-30T03:34:25;21.52;;;10.85;;
58294;SDS011;45705;55.592;37.460;2024-01-30T03:36:51;19.55;;;10.65;;
58294;SDS011;45705;55.592;37.460;2024-01-30T03:39:16;19.60;;;11.30;;
58294;SDS011;45705;55.592;37.460;2024-01-30T03:41:42;19.23;;;10.52;;
58294;SDS011;45705;55.592;37.460;2024-01-30T03:44:10;21.20;;;10.73;;
58294;SDS011;45705;55.592;37.460;2024-01-30T03:46:36;20.42;;;10.88;;
58294;SDS011;45705;55.592;37.460;2024-01-30T03:49:02;21.98;;;10.75;;
58294;SDS011;45705;55.592;37.460;2024-01-30T03:51:29;19.88;;;10.80;;
58294;SDS011;45705;55.592;37.460;2024-01-30T03:53:55;18.23;;;9.98;;
58294;SDS011;45705;55.592;37.460;2024-01-30T03:56:21;20.98;;;11.43;;
58294;SDS011;45705;55.592;37.460;2024-01-30T03:58:47;19.52;;;10.40;;
58294;SDS011;45705;55.592;37.460;2024-01-30T04:01:15;21.02;;;10.63;;
58294;SDS011;45705;55.592;37.460;2024-01-30T04:03:41;22.10;;;10.10;;
58294;SDS011;45705;55.592;37.460;2024-01-30T04:06:09;17.83;;;9.73;;
58294;SDS011;45705;55.592;37.460;2024-01-30T04:08:36;17.15;;;9.60;;
58294;SDS011;45705;55.592;37.460;2024-01-30T04:11:06;19.00;;;10.73;;
58294;SDS011;45705;55.592;37.460;2024-01-30T04:13:32;20.08;;;10.55;;
58294;SDS011;45705;55.592;37.460;2024-01-30T04:15:59;18.55;;;10.80;;
58294;SDS011;45705;55.592;37.460;2024-01-30T04:18:29;20.65;;;11.20;;
58294;SDS011;45705;55.592;37.460;2024-01-30T04:20:56;19.60;;;10.82;;
58294;SDS011;45705;55.592;37.460;2024-01-30T04:23:22;20.80;;;11.85;;
58294;SDS011;45705;55.592;37.460;2024-01-30T04:25:47;15.85;;;9.30;;
58294;SDS011;45705;55.592;37.460;2024-01-30T04:28:13;17.55;;;10.07;;
58294;SDS011;45705;55.592;37.460;2024-01-30T04:30:39;15.95;;;10.23;;
58294;SDS011;45705;55.592;37.460;2024-01-30T04:33:05;17.05;;;9.88;;
58294;SDS011;45705;55.592;37.460;2024-01-30T04:35:32;17.48;;;10.00;;
58294;SDS011;45705;55.592;37.460;2024-01-30T04:37:57;18.55;;;9.93;;
58294;SDS011;45705;55.592;37.460;2024-01-30T04:40:23;20.92;;;10.45;;
58294;SDS011;45705;55.592;37.460;2024-01-30T04:42:49;16.10;;;9.15;;
58294;SDS011;45705;55.592;37.460;2024-01-30T04:45:15;18.55;;;9.60;;
58294;SDS011;45705;55.592;37.460;2024-01-30T04:47:41;17.63;;;9.75;;
58294;SDS011;45705;55.592;37.460;2024-01-30T04:50:07;17.25;;;9.82;;
58294;SDS011;45705;55.592;37.460;2024-01-30T04:52:34;19.60;;;10.63;;
58294;SDS011;45705;55.592;37.460;2024-01-30T04:55:01;17.13;;;9.52;;
58294;SDS011;45705;55.592;37.460;2024-01-30T04:57:30;15.90;;;9.57;;
58294;SDS011;45705;55.592;37.460;2024-01-30T04:59:56;17.73;;;9.27;;
58294;SDS011;45705;55.592;37.460;2024-01-30T05:02:22;19.38;;;10.50;;
58294;SDS011;45705;55.592;37.460;2024-01-30T05:04:47;19.10;;;9.85;;
58294;SDS011;45705;55.592;37.460;2024-01-30T05:07:13;16.67;;;9.68;;
58294;SDS011;45705;55.592;37.460;2024-01-30T05:09:39;20.67;;;9.52;;
58294;SDS011;45705;55.592;37.460;2024-01-30T05:12:05;15.30;;;9.23;;
58294;SDS011;45705;55.592;37.460;2024-01-30T05:14:30;17.50;;;9.50;;
58294;SDS011;45705;55.592;37.460;2024-01-30T05:16:56;19.60;;;10.55;;
58294;SDS011;45705;55.592;37.460;2024-01-30T05:19:22;14.55;;;7.85;;
58294;SDS011;45705;55.592;37.460;2024-01-30T05:21:49;17.15;;;9.70;;
58294;SDS011;45705;55.592;37.460;2024-01-30T05:24:15;18.08;;;9.32;;
58294;SDS011;45705;55.592;37.460;2024-01-30T05:26:41;18.20;;;9.23;;
58294;SDS011;45705;55.592;37.460;2024-01-30T05:29:07;19.60;;;10.38;;
58294;SDS011;45705;55.592;37.460;2024-01-30T05:31:33;15.10;;;8.73;;
58294;SDS011;45705;55.592;37.460;2024-01-30T05:33:59;15.25;;;9.15;;
58294;SDS011;45705;55.592;37.460;2024-01-30T05:36:25;18.73;;;9.77;;
58294;SDS011;45705;55.592;37.460;2024-01-30T05:38:51;18.25;;;8.88;;
58294;SDS011;45705;55.592;37.460;2024-01-30T05:41:17;15.43;;;9.10;;
58294;SDS011;45705;55.592;37.460;2024-01-30T05:43:43;15.45;;;9.20;;
58294;SDS011;45705;55.592;37.460;2024-01-30T05:46:09;17.65;;;9.52;;
58294;SDS011;45705;55.592;37.460;2024-01-30T05:48:35;15.70;;;9.13;;
58294;SDS011;45705;55.592;37.460;2024-01-30T05:51:01;15.23;;;9.07;;
58294;SDS011;45705;55.592;37.460;2024-01-30T05:53:28;18.48;;;8.93;;
58294;SDS011;45705;55.592;37.460;2024-01-30T05:55:54;16.60;;;9.27;;
58294;SDS011;45705;55.592;37.460;2024-01-30T05:58:19;18.67;;;9.48;;
58294;SDS011;45705;55.592;37.460;2024-01-30T06:00:45;13.52;;;8.35;;
58294;SDS011;45705;55.592;37.460;2024-01-30T06:03:11;15.63;;;10.23;;
58294;SDS011;45705;55.592;37.460;2024-01-30T06:05:36;15.77;;;9.35;;
58294;SDS011;45705;55.592;37.460;2024-01-30T06:08:02;14.98;;;9.10;;
58294;SDS011;45705;55.592;37.460;2024-01-30T06:10:28;18.60;;;9.63;;
58294;SDS011;45705;55.592;37.460;2024-01-30T06:12:54;18.77;;;9.38;;
58294;SDS011;45705;55.592;37.460;2024-01-30T06:15:20;15.77;;;9.15;;
58294;SDS011;45705;55.592;37.460;2024-01-30T06:17:46;19.05;;;9.13;;
58294;SDS011;45705;55.592;37.460;2024-01-30T06:20:12;16.40;;;9.55;;
58294;SDS011;45705;55.592;37.460;2024-01-30T06:22:37;14.00;;;9.13;;
58294;SDS011;45705;55.592;37.460;2024-01-30T06:25:03;14.65;;;8.77;;
58294;SDS011;45705;55.592;37.460;2024-01-30T06:30:21;17.83;;;9.23;;
58294;SDS011;45705;55.592;37.460;2024-01-30T06:32:46;13.50;;;8.50;;
58294;SDS011;45705;55.592;37.460;2024-01-30T06:35:12;16.60;;;9.32;;
58294;SDS011;45705;55.592;37.460;2024-01-30T06:37:38;16.63;;;9.30;;
58294;SDS011;45705;55.592;37.460;2024-01-30T06:40:04;15.85;;;9.45;;
58294;SDS011;45705;55.592;37.460;2024-01-30T06:42:30;17.27;;;8.93;;
58294;SDS011;45705;55.592;37.460;2024-01-30T06:44:56;18.10;;;9.25;;
58294;SDS011;45705;55.592;37.460;2024-01-30T06:47:22;15.90;;;9.07;;
58294;SDS011;45705;55.592;37.460;2024-01-30T06:49:48;17.65;;;9.30;;
58294;SDS011;45705;55.592;37.460;2024-01-30T06:52:13;17.80;;;9.43;;
58294;SDS011;45705;55.592;37.460;2024-01-30T06:54:39;18.50;;;10.15;;
58294;SDS011;45705;55.592;37.460;2024-01-30T06:57:05;19.88;;;9.00;;
58294;SDS011;45705;55.592;37.460;2024-01-30T06:59:37;17.20;;;9.27;;
58294;SDS011;45705;55.592;37.460;2024-01-30T07:02:09;14.55;;;8.98;;
58294;SDS011;45705;55.592;37.460;2024-01-30T07:04:35;15.50;;;9.38;;
58294;SDS011;45705;55.592;37.460;2024-01-30T07:07:03;17.17;;;9.98;;
58294;SDS011;45705;55.592;37.460;2024-01-30T07:09:30;14.73;;;9.00;;
58294;SDS011;45705;55.592;37.460;2024-01-30T07:11:57;18.08;;;9.60;;
58294;SDS011;45705;55.592;37.460;2024-01-30T07:14:25;17.00;;;10.48;;
58294;SDS011;45705;55.592;37.460;2024-01-30T07:16:51;15.85;;;9.57;;
58294;SDS011;45705;55.592;37.460;2024-01-30T07:19:17;16.90;;;9.48;;
58294;SDS011;45705;55.592;37.460;2024-01-30T07:21:43;18.38;;;10.05;;
58294;SDS011;45705;55.592;37.460;2024-01-30T07:24:09;16.08;;;9.93;;
58294;SDS011;45705;55.592;37.460;2024-01-30T07:26:35;18.20;;;9.48;;
58294;SDS011;45705;55.592;37.460;2024-01-30T07:29:01;18.15;;;10.43;;
58294;SDS011;45705;55.592;37.460;2024-01-30T07:31:27;18.42;;;9.35;;
58294;SDS011;45705;55.592;37.460;2024-01-30T07:33:53;20.00;;;10.23;;
58294;SDS011;45705;55.592;37.460;2024-01-30T07:36:20;17.85;;;9.32;;
58294;SDS011;45705;55.592;37.460;2024-01-30T07:38:46;15.90;;;8.90;;
58294;SDS011;45705;55.592;37.460;2024-01-30T07:41:12;17.25;;;10.07;;
58294;SDS011;45705;55.592;37.460;2024-01-30T07:43:38;17.80;;;10.25;;
58294;SDS011;45705;55.592;37.460;2024-01-30T07:46:04;22.13;;;9.98;;
58294;SDS011;45705;55.592;37.460;2024-01-30T07:48:32;15.63;;;8.80;;
58294;SDS011;45705;55.592;37.460;2024-01-30T07:51:01;18.02;;;10.48;;
58294;SDS011;45705;55.592;37.460;2024-01-30T07:53:29;18.45;;;9.95;;
58294;SDS011;45705;55.592;37.460;2024-01-30T07:55:55;16.73;;;9.43;;
58294;SDS011;45705;55.592;37.460;2024-01-30T07:58:21;20.38;;;9.95;;
58294;SDS011;45705;55.592;37.460;2024-01-30T08:00:47;16.98;;;9.77;;
58294;SDS011;45705;55.592;37.460;2024-01-30T08:03:12;17.20;;;9.88;;
58294;SDS011;45705;55.592;37.460;2024-01-30T08:05:41;15.63;;;9.80;;
58294;SDS011;45705;55.592;37.460;2024-01-30T08:08:07;18.85;;;10.23;;
58294;SDS011;45705;55.592;37.460;2024-01-30T08:10:33;19.27;;;10.02;;
58294;SDS011;45705;55.592;37.460;2024-01-30T08:12:59;17.98;;;10.23;;
58294;SDS011;45705;55.592;37.460;2024-01-30T08:15:24;19.48;;;9.95;;
58294;SDS011;45705;55.592;37.460;2024-01-30T08:17:50;21.10;;;9.85;;
58294;SDS011;45705;55.592;37.460;2024-01-30T08:20:21;19.38;;;10.45;;
58294;SDS011;45705;55.592;37.460;2024-01-30T08:22:46;18.65;;;10.52;;
58294;SDS011;45705;55.592;37.460;2024-01-30T08:25:12;21.48;;;10.75;;
58294;SDS011;45705;55.592;37.460;2024-01-30T08:27:38;23.25;;;10.48;;
58294;SDS011;45705;55.592;37.460;2024-01-30T08:30:05;17.65;;;9.57;;
58294;SDS011;45705;55.592;37.460;2024-01-30T08:32:32;18.05;;;10.25;;
58294;SDS011;45705;55.592;37.460;2024-01-30T08:34:58;17.63;;;9.77;;
58294;SDS011;45705;55.592;37.460;2024-01-30T08:37:24;21.38;;;11.55;;
58294;SDS011;45705;55.592;37.460;2024-01-30T08:39:50;17.08;;;9.88;;
58294;SDS011;45705;55.592;37.460;2024-01-30T08:42:16;16.90;;;9.60;;
58294;SDS011;45705;55.592;37.460;2024-01-30T08:44:43;21.55;;;10.80;;
58294;SDS011;45705;55.592;37.460;2024-01-30T08:47:09;20.15;;;10.32;;
58294;SDS011;45705;55.592;37.460;2024-01-30T08:49:35;20.55;;;10.35;;
58294;SDS011;45705;55.592;37.460;2024-01-30T08:52:01;20.75;;;10.73;;
58294;SDS011;45705;55.592;37.460;2024-01-30T08:54:27;18.98;;;10.85;;
58294;SDS011;45705;55.592;37.460;2024-01-30T08:56:52;18.65;;;10.45;;
58294;SDS011;45705;55.592;37.460;2024-01-30T08:59:18;18.92;;;10.30;;
58294;SDS011;45705;55.592;37.460;2024-01-30T09:01:44;21.00;;;10.68;;
58294;SDS011;45705;55.592;37.460;2024-01-30T09:04:12;20.33;;;10.38;;
58294;SDS011;45705;55.592;37.460;2024-01-30T09:06:38;20.65;;;10.80;;
58294;SDS011;45705;55.592;37.460;2024-01-30T09:09:04;16.65;;;10.45;;
58294;SDS011;45705;55.592;37.460;2024-01-30T09:11:31;20.65;;;10.27;;
58294;SDS011;45705;55.592;37.460;2024-01-30T09:13:57;20.10;;;10.20;;
58294;SDS011;45705;55.592;37.460;2024-01-30T09:16:22;21.15;;;10.45;;
58294;SDS011;45705;55.592;37.460;2024-01-30T09:18:48;18.85;;;10.43;;
58294;SDS011;45705;55.592;37.460;2024-01-30T09:21:14;21.67;;;10.20;;
58294;SDS011;45705;55.592;37.460;2024-01-30T09:23:40;18.80;;;10.70;;
58294;SDS011;45705;55.592;37.460;2024-01-30T09:26:06;23.08;;;11.75;;
58294;SDS011;45705;55.592;37.460;2024-01-30T09:28:32;21.83;;;11.40;;
58294;SDS011;45705;55.592;37.460;2024-01-30T09:30:58;23.08;;;10.95;;
58294;SDS011;45705;55.592;37.460;2024-01-30T09:33:23;23.40;;;12.05;;
58294;SDS011;45705;55.592;37.460;2024-01-30T09:35:49;21.92;;;12.45;;
58294;SDS011;45705;55.592;37.460;2024-01-30T09:38:16;23.35;;;11.75;;
58294;SDS011;45705;55.592;37.460;2024-01-30T09:40:42;23.77;;;11.27;;
58294;SDS011;45705;55.592;37.460;2024-01-30T09:43:08;23.10;;;11.50;;
58294;SDS011;45705;55.592;37.460;2024-01-30T09:45:41;24.23;;;11.90;;
58294;SDS011;45705;55.592;37.460;2024-01-30T09:48:09;21.40;;;11.20;;
58294;SDS011;45705;55.592;37.460;2024-01-30T09:50:36;19.83;;;10.93;;
58294;SDS011;45705;55.592;37.460;2024-01-30T09:53:02;21.05;;;11.27;;
58294;SDS011;45705;55.592;37.460;2024-01-30T09:55:29;19.08;;;10.88;;
58294;SDS011;45705;55.592;37.460;2024-01-30T09:57:55;20.38;;;11.48;;
58294;SDS011;45705;55.592;37.460;2024-01-30T10:00:21;20.58;;;11.10;;
58294;SDS011;45705;55.592;37.460;2024-01-30T10:02:51;25.77;;;12.07;;
58294;SDS011;45705;55.592;37.460;2024-01-30T10:05:18;21.52;;;12.10;;
58294;SDS011;45705;55.592;37.460;2024-01-30T10:07:53;25.02;;;11.52;;
58294;SDS011;45705;55.592;37.460;2024-01-30T10:10:22;23.73;;;11.40;;
58294;SDS011;45705;55.592;37.460;2024-01-30T10:15:17;21.45;;;10.93;;
58294;SDS011;45705;55.592;37.460;2024-01-30T10:17:45;23.60;;;11.88;;
58294;SDS011;45705;55.592;37.460;2024-01-30T10:20:12;21.00;;;11.40;;
58294;SDS011;45705;55.592;37.460;2024-01-30T10:22:39;21.48;;;12.05;;
58294;SDS011;45705;55.592;37.460;2024-01-30T10:25:09;19.85;;;11.70;;
58294;SDS011;45705;55.592;37.460;2024-01-30T10:27:35;23.73;;;12.05;;
58294;SDS011;45705;55.592;37.460;2024-01-30T10:30:01;17.90;;;10.95;;
58294;SDS011;45705;55.592;37.460;2024-01-30T10:32:31;22.00;;;11.40;;
58294;SDS011;45705;55.592;37.460;2024-01-30T10:34:57;22.25;;;11.63;;
58294;SDS011;45705;55.592;37.460;2024-01-30T10:37:24;22.20;;;11.50;;
58294;SDS011;45705;55.592;37.460;2024-01-30T10:39:51;26.57;;;11.87;;
58294;SDS011;45705;55.592;37.460;2024-01-30T10:42:19;20.73;;;11.63;;
58294;SDS011;45705;55.592;37.460;2024-01-30T10:44:53;20.27;;;11.65;;
58294;SDS011;45705;55.592;37.460;2024-01-30T10:47:28;20.63;;;11.35;;
58294;SDS011;45705;55.592;37.460;2024-01-30T10:49:55;21.40;;;10.80;;
58294;SDS011;45705;55.592;37.460;2024-01-30T10:52:23;23.15;;;12.40;;
58294;SDS011;45705;55.592;37.460;2024-01-30T10:54:54;25.85;;;13.82;;
58294;SDS011;45705;55.592;37.460;2024-01-30T10:57:24;22.90;;;11.70;;
58294;SDS011;45705;55.592;37.460;2024-01-30T10:59:53;21.20;;;11.68;;
58294;SDS011;45705;55.592;37.460;2024-01-30T11:02:22;24.80;;;12.63;;
58294;SDS011;45705;55.592;37.460;2024-01-30T11:04:49;25.35;;;11.93;;
58294;SDS011;45705;55.592;37.460;2024-01-30T11:07:24;24.02;;;12.38;;
58294;SDS011;45705;55.592;37.460;2024-01-30T11:09:59;20.25;;;11.75;;
58294;SDS011;45705;55.592;37.460;2024-01-30T11:12:26;24.60;;;12.18;;
58294;SDS011;45705;55.592;37.460;2024-01-30T11:20:12;21.73;;;12.10;;
58294;SDS011;45705;55.592;37.460;2024-01-30T11:22:41;23.15;;;12.10;;
58294;SDS011;45705;55.592;37.460;2024-01-30T11:25:15;24.45;;;12.85;;
58294;SDS011;45705;55.592;37.460;2024-01-30T11:27:44;23.75;;;12.68;;
58294;SDS011;45705;55.592;37.460;2024-01-30T11:30:10;21.08;;;12.25;;
58294;SDS011;45705;55.592;37.460;2024-01-30T11:32:46;19.88;;;11.77;;
58294;SDS011;45705;55.592;37.460;2024-01-30T11:35:12;22.90;;;11.23;;
58294;SDS011;45705;55.592;37.460;2024-01-30T11:37:37;23.05;;;12.32;;
58294;SDS011;45705;55.592;37.460;2024-01-30T11:40:04;21.23;;;11.68;;
58294;SDS011;45705;55.592;37.460;2024-01-30T11:42:31;21.98;;;11.52;;
58294;SDS011;45705;55.592;37.460;2024-01-30T11:44:59;23.67;;;12.30;;
58294;SDS011;45705;55.592;37.460;2024-01-30T11:47:26;23.77;;;12.38;;
58294;SDS011;45705;55.592;37.460;2024-01-30T11:49:51;24.05;;;12.20;;
58294;SDS011;45705;55.592;37.460;2024-01-30T11:52:17;24.25;;;12.70;;
58294;SDS011;45705;55.592;37.460;2024-01-30T11:54:43;26.63;;;12.85;;
58294;SDS011;45705;55.592;37.460;2024-01-30T11:57:09;25.35;;;11.57;;
58294;SDS011;45705;55.592;37.460;2024-01-30T11:59:35;26.10;;;12.77;;
58294;SDS011;45705;55.592;37.460;2024-01-30T12:02:01;21.85;;;11.65;;
58294;SDS011;45705;55.592;37.460;2024-01-30T12:04:28;21.75;;;11.52;;
58294;SDS011;45705;55.592;37.460;2024-01-30T12:06:54;24.10;;;12.27;;
58294;SDS011;45705;55.592;37.460;2024-01-30T12:09:20;26.27;;;12.70;;
58294;SDS011;45705;55.592;37.460;2024-01-30T12:11:47;23.52;;;12.60;;
58294;SDS011;45705;55.592;37.460;2024-01-30T12:14:15;23.00;;;12.07;;
58294;SDS011;45705;55.592;37.460;2024-01-30T12:16:42;25.70;;;12.10;;
58294;SDS011;45705;55.592;37.460;2024-01-30T12:19:08;27.85;;;13.52;;
58294;SDS011;45705;55.592;37.460;2024-01-30T12:21:34;25.50;;;13.45;;
58294;SDS011;45705;55.592;37.460;2024-01-30T12:24:00;26.48;;;13.77;;
58294;SDS011;45705;55.592;37.460;2024-01-30T12:26:26;32.75;;;15.80;;
58294;SDS011;45705;55.592;37.460;2024-01-30T12:28:55;33.38;;;16.67;;
58294;SDS011;45705;55.592;37.460;2024-01-30T12:31:27;29.60;;;16.95;;
58294;SDS011;45705;55.592;37.460;2024-01-30T12:33:53;30.73;;;15.55;;
58294;SDS011;45705;55.592;37.460;2024-01-30T12:36:20;27.60;;;15.30;;
58294;SDS011;45705;55.592;37.460;2024-01-30T12:38:47;29.27;;;14.43;;
58294;SDS011;45705;55.592;37.460;2024-01-30T12:41:13;21.27;;;12.98;;
58294;SDS011;45705;55.592;37.460;2024-01-30T12:43:39;25.42;;;13.57;;
58294;SDS011;45705;55.592;37.460;2024-01-30T12:46:05;23.65;;;13.13;;
58294;SDS011;45705;55.592;37.460;2024-01-30T12:48:31;27.08;;;13.88;;
58294;SDS011;45705;55.592;37.460;2024-01-30T12:50:57;28.13;;;14.50;;
58294;SDS011;45705;55.592;37.460;2024-01-30T12:53:23;26.42;;;13.32;;
58294;SDS011;45705;55.592;37.460;2024-01-30T12:55:49;26.67;;;13.40;;
58294;SDS011;45705;55.592;37.460;2024-01-30T12:58:15;25.13;;;13.52;;
58294;SDS011;45705;55.592;37.460;2024-01-30T13:00:41;27.65;;;13.23;;
58294;SDS011;45705;55.592;37.460;2024-01-30T13:03:09;22.95;;;12.75;;
58294;SDS011;45705;55.592;37.460;2024-01-30T13:05:35;24.83;;;13.07;;
58294;SDS011;45705;55.592;37.460;2024-01-30T13:08:01;22.40;;;12.82;;
58294;SDS011;45705;55.592;37.460;2024-01-30T13:10:27;23.02;;;12.50;;
58294;SDS011;45705;55.592;37.460;2024-01-30T13:12:53;31.92;;;12.95;;
58294;SDS011;45705;55.592;37.460;2024-01-30T13:15:18;20.50;;;12.38;;
58294;SDS011;45705;55.592;37.460;2024-01-30T13:17:44;22.70;;;12.70;;
58294;SDS011;45705;55.592;37.460;2024-01-30T13:20:13;34.92;;;12.65;;
58294;SDS011;45705;55.592;37.460;2024-01-30T13:22:43;24.23;;;13.63;;
58294;SDS011;45705;55.592;37.460;2024-01-30T13:25:09;24.80;;;12.68;;
58294;SDS011;45705;55.592;37.460;2024-01-30T13:27:35;30.23;;;13.63;;
58294;SDS011;45705;55.592;37.460;2024-01-30T13:30:02;25.33;;;12.73;;
58294;SDS011;45705;55.592;37.460;2024-01-30T13:32:30;27.58;;;13.98;;
58294;SDS011;45705;55.592;37.460;2024-01-30T13:34:56;29.73;;;13.70;;
58294;SDS011;45705;55.592;37.460;2024-01-30T13:37:22;26.65;;;14.00;;
58294;SDS011;45705;55.592;37.460;2024-01-30T13:39:48;27.33;;;13.60;;
58294;SDS011;45705;55.592;37.460;2024-01-30T13:42:14;28.73;;;15.55;;
58294;SDS011;45705;55.592;37.460;2024-01-30T13:44:40;33.45;;;14.45;;
58294;SDS011;45705;55.592;37.460;2024-01-30T13:47:06;26.98;;;14.35;;
58294;SDS011;45705;55.592;37.460;2024-01-30T13:49:31;26.88;;;13.82;;
58294;SDS011;45705;55.592;37.460;2024-01-30T13:51:57;27.98;;;14.10;;
58294;SDS011;45705;55.592;37.460;2024-01-30T13:54:24;30.23;;;13.80;;
58294;SDS011;45705;55.592;37.460;2024-01-30T13:56:49;31.88;;;14.82;;
58294;SDS011;45705;55.592;37.460;2024-01-30T13:59:15;27.00;;;14.50;;
58294;SDS011;45705;55.592;37.460;2024-01-30T14:01:48;30.95;;;15.48;;
58294;SDS011;45705;55.592;37.460;2024-01-30T14:04:13;30.50;;;14.80;;
58294;SDS011;45705;55.592;37.460;2024-01-30T14:06:40;30.40;;;15.20;;
58294;SDS011;45705;55.592;37.460;2024-01-30T14:09:06;30.95;;;14.38;;
58294;SDS011;45705;55.592;37.460;2024-01-30T14:11:31;33.83;;;14.80;;
58294;SDS011;45705;55.592;37.460;2024-01-30T14:13:57;32.45;;;14.32;;
58294;SDS011;45705;55.592;37.460;2024-01-30T14:16:23;30.15;;;15.20;;
58294;SDS011;45705;55.592;37.460;2024-01-30T14:18:50;29.88;;;13.80;;
58294;SDS011;45705;55.592;37.460;2024-01-30T14:21:16;28.27;;;13.90;;